sensor_id;sensor_type;location;lat;lon;timestamp;P1;durP1;ratioP1;P2;durP2;ratioP2
18228;SDS011;9239;50.932;3.142;2022-11-13T00:02:22;25.00;;;22.40;;
18228;SDS011;9239;50.932;3.142;2022-11-13T00:04:49;25.83;;;23.03;;
18228;SDS011;9239;50.932;3.142;2022-11-13T00:07:15;24.90;;;22.50;;
18228;SDS011;9239;50.932;3.142;2022-11-13T00:09:42;25.13;;;22.43;;
18228;SDS011;9239;50.932;3.142;2022-11-13T00:12:09;22.80;;;20.53;;
18228;SDS011;9239;50.932;3.142;2022-11-13T00:14:36;25.23;;;22.63;;
18228;SDS011;9239;50.932;3.142;2022-11-13T00:17:04;26.47;;;23.87;;
18228;SDS011;9239;50.932;3.142;2022-11-13T00:19:31;25.20;;;22.47;;
18228;SDS011;9239;50.932;3.142;2022-11-13T00:21:58;23.17;;;20.73;;
18228;SDS011;9239;50.932;3.142;2022-11-13T00:24:25;24.53;;;21.93;;
18228;SDS011;9239;50.932;3.142;2022-11-13T00:26:52;24.50;;;22.10;;
18228;SDS011;9239;50.932;3.142;2022-11-13T00:29:19;24.83;;;22.43;;
18228;SDS011;9239;50.932;3.142;2022-11-13T00:31:45;24.33;;;21.90;;
18228;SDS011;9239;50.932;3.142;2022-11-13T00:34:14;23.53;;;21.13;;
18228;SDS011;9239;50.932;3.142;2022-11-13T00:36:41;23.97;;;21.53;;
18228;SDS011;9239;50.932;3.142;2022-11-13T00:39:08;23.33;;;21.03;;
18228;SDS011;9239;50.932;3.142;2022-11-13T00:41:35;23.57;;;21.17;;
18228;SDS011;9239;50.932;3.142;2022-11-13T00:44:02;22.10;;;19.90;;
18228;SDS011;9239;50.932;3.142;2022-11-13T00:46:29;24.27;;;20.80;;
18228;SDS011;9239;50.932;3.142;2022-11-13T00:48:56;24.80;;;22.17;;
18228;SDS011;9239;50.932;3.142;2022-11-13T00:51:24;22.30;;;20.00;;
18228;SDS011;9239;50.932;3.142;2022-11-13T00:53:51;23.23;;;20.87;;
18228;SDS011;9239;50.932;3.142;2022-11-13T00:56:18;22.17;;;19.97;;
18228;SDS011;9239;50.932;3.142;2022-11-13T00:58:45;22.70;;;20.40;;
18228;SDS011;9239;50.932;3.142;2022-11-13T01:01:12;21.23;;;19.10;;
18228;SDS011;9239;50.932;3.142;2022-11-13T01:03:40;23.80;;;21.23;;
18228;SDS011;9239;50.932;3.142;2022-11-13T01:06:08;23.97;;;21.50;;
18228;SDS011;9239;50.932;3.142;2022-11-13T01:08:38;23.97;;;21.47;;
18228;SDS011;9239;50.932;3.142;2022-11-13T01:11:08;27.23;;;21.17;;
18228;SDS011;9239;50.932;3.142;2022-11-13T01:13:36;23.67;;;21.30;;
18228;SDS011;9239;50.932;3.142;2022-11-13T01:16:05;23.03;;;20.63;;
18228;SDS011;9239;50.932;3.142;2022-11-13T01:18:33;25.77;;;21.47;;
18228;SDS011;9239;50.932;3.142;2022-11-13T01:21:04;22.77;;;20.53;;
18228;SDS011;9239;50.932;3.142;2022-11-13T01:23:32;23.13;;;20.50;;
18228;SDS011;9239;50.932;3.142;2022-11-13T01:26:05;21.57;;;19.40;;
18228;SDS011;9239;50.932;3.142;2022-11-13T01:28:33;23.50;;;20.20;;
18228;SDS011;9239;50.932;3.142;2022-11-13T01:31:02;20.70;;;18.63;;
18228;SDS011;9239;50.932;3.142;2022-11-13T01:33:30;22.13;;;19.90;;
18228;SDS011;9239;50.932;3.142;2022-11-13T01:36:00;23.13;;;20.83;;
18228;SDS011;9239;50.932;3.142;2022-11-13T01:38:28;23.60;;;20.10;;
18228;SDS011;9239;50.932;3.142;2022-11-13T01:40:55;21.37;;;19.27;;
18228;SDS011;9239;50.932;3.142;2022-11-13T01:43:25;23.07;;;20.73;;
18228;SDS011;9239;50.932;3.142;2022-11-13T01:46:01;20.13;;;17.97;;
18228;SDS011;9239;50.932;3.142;2022-11-13T01:48:33;21.20;;;18.37;;
18228;SDS011;9239;50.932;3.142;2022-11-13T01:51:03;21.57;;;19.27;;
18228;SDS011;9239;50.932;3.142;2022-11-13T01:53:36;18.73;;;16.93;;
18228;SDS011;9239;50.932;3.142;2022-11-13T01:56:05;20.83;;;18.77;;
18228;SDS011;9239;50.932;3.142;2022-11-13T01:58:34;20.13;;;18.03;;
18228;SDS011;9239;50.932;3.142;2022-11-13T02:01:02;20.33;;;18.37;;
18228;SDS011;9239;50.932;3.142;2022-11-13T02:03:29;20.93;;;18.70;;
18228;SDS011;9239;50.932;3.142;2022-11-13T02:05:56;22.67;;;18.83;;
18228;SDS011;9239;50.932;3.142;2022-11-13T02:08:23;20.80;;;18.57;;
18228;SDS011;9239;50.932;3.142;2022-11-13T02:10:50;21.27;;;19.07;;
18228;SDS011;9239;50.932;3.142;2022-11-13T02:13:17;19.93;;;17.97;;
18228;SDS011;9239;50.932;3.142;2022-11-13T02:15:46;23.17;;;18.77;;
18228;SDS011;9239;50.932;3.142;2022-11-13T02:18:15;19.73;;;17.73;;
18228;SDS011;9239;50.932;3.142;2022-11-13T02:20:44;20.63;;;18.53;;
18228;SDS011;9239;50.932;3.142;2022-11-13T02:23:20;20.83;;;18.67;;
18228;SDS011;9239;50.932;3.142;2022-11-13T02:25:54;21.00;;;18.80;;
18228;SDS011;9239;50.932;3.142;2022-11-13T02:28:22;23.80;;;19.37;;
18228;SDS011;9239;50.932;3.142;2022-11-13T02:30:48;22.33;;;20.03;;
18228;SDS011;9239;50.932;3.142;2022-11-13T02:33:18;20.67;;;18.53;;
18228;SDS011;9239;50.932;3.142;2022-11-13T02:35:47;20.47;;;18.37;;
18228;SDS011;9239;50.932;3.142;2022-11-13T02:38:14;19.93;;;17.93;;
18228;SDS011;9239;50.932;3.142;2022-11-13T02:40:41;21.70;;;19.40;;
18228;SDS011;9239;50.932;3.142;2022-11-13T02:43:09;19.83;;;17.87;;
18228;SDS011;9239;50.932;3.142;2022-11-13T02:45:36;20.17;;;18.10;;
18228;SDS011;9239;50.932;3.142;2022-11-13T02:48:04;19.63;;;17.63;;
18228;SDS011;9239;50.932;3.142;2022-11-13T02:50:31;19.93;;;17.97;;
18228;SDS011;9239;50.932;3.142;2022-11-13T02:52:59;20.93;;;18.73;;
18228;SDS011;9239;50.932;3.142;2022-11-13T02:55:26;20.03;;;17.87;;
18228;SDS011;9239;50.932;3.142;2022-11-13T02:57:53;19.20;;;17.23;;
18228;SDS011;9239;50.932;3.142;2022-11-13T03:00:21;18.57;;;16.77;;
18228;SDS011;9239;50.932;3.142;2022-11-13T03:02:48;19.47;;;17.47;;
18228;SDS011;9239;50.932;3.142;2022-11-13T03:05:15;20.20;;;18.20;;
18228;SDS011;9239;50.932;3.142;2022-11-13T03:07:42;19.57;;;17.57;;
18228;SDS011;9239;50.932;3.142;2022-11-13T03:10:09;18.17;;;16.37;;
18228;SDS011;9239;50.932;3.142;2022-11-13T03:12:37;20.07;;;18.07;;
18228;SDS011;9239;50.932;3.142;2022-11-13T03:15:05;20.20;;;17.93;;
18228;SDS011;9239;50.932;3.142;2022-11-13T03:17:34;21.07;;;17.53;;
18228;SDS011;9239;50.932;3.142;2022-11-13T03:20:01;20.73;;;17.80;;
18228;SDS011;9239;50.932;3.142;2022-11-13T03:22:29;20.87;;;18.53;;
18228;SDS011;9239;50.932;3.142;2022-11-13T03:24:56;20.30;;;18.20;;
18228;SDS011;9239;50.932;3.142;2022-11-13T03:27:23;19.90;;;17.80;;
18228;SDS011;9239;50.932;3.142;2022-11-13T03:29:49;19.47;;;17.43;;
18228;SDS011;9239;50.932;3.142;2022-11-13T03:32:16;19.53;;;17.27;;
18228;SDS011;9239;50.932;3.142;2022-11-13T03:34:45;18.97;;;17.07;;
18228;SDS011;9239;50.932;3.142;2022-11-13T03:37:11;22.00;;;18.10;;
18228;SDS011;9239;50.932;3.142;2022-11-13T03:39:38;20.00;;;16.93;;
18228;SDS011;9239;50.932;3.142;2022-11-13T03:42:05;19.23;;;17.20;;
18228;SDS011;9239;50.932;3.142;2022-11-13T03:44:33;19.10;;;17.13;;
18228;SDS011;9239;50.932;3.142;2022-11-13T03:47:00;18.87;;;16.97;;
18228;SDS011;9239;50.932;3.142;2022-11-13T03:49:27;19.37;;;17.47;;
18228;SDS011;9239;50.932;3.142;2022-11-13T03:51:55;19.33;;;17.30;;
18228;SDS011;9239;50.932;3.142;2022-11-13T03:54:22;21.17;;;16.67;;
18228;SDS011;9239;50.932;3.142;2022-11-13T03:56:49;19.67;;;17.57;;
18228;SDS011;9239;50.932;3.142;2022-11-13T03:59:16;19.80;;;17.60;;
18228;SDS011;9239;50.932;3.142;2022-11-13T04:01:42;18.20;;;16.40;;
18228;SDS011;9239;50.932;3.142;2022-11-13T04:04:10;19.40;;;17.37;;
18228;SDS011;9239;50.932;3.142;2022-11-13T04:06:37;19.40;;;17.40;;
18228;SDS011;9239;50.932;3.142;2022-11-13T04:09:05;18.77;;;16.90;;
18228;SDS011;9239;50.932;3.142;2022-11-13T04:11:32;19.23;;;17.20;;
18228;SDS011;9239;50.932;3.142;2022-11-13T04:13:59;19.90;;;17.70;;
18228;SDS011;9239;50.932;3.142;2022-11-13T04:16:26;20.60;;;17.20;;
18228;SDS011;9239;50.932;3.142;2022-11-13T04:18:53;21.30;;;17.77;;
18228;SDS011;9239;50.932;3.142;2022-11-13T04:21:20;20.27;;;18.07;;
18228;SDS011;9239;50.932;3.142;2022-11-13T04:23:47;21.13;;;18.23;;
18228;SDS011;9239;50.932;3.142;2022-11-13T04:26:15;22.23;;;18.13;;
18228;SDS011;9239;50.932;3.142;2022-11-13T04:28:42;24.07;;;18.83;;
18228;SDS011;9239;50.932;3.142;2022-11-13T04:31:09;21.77;;;18.73;;
18228;SDS011;9239;50.932;3.142;2022-11-13T04:33:35;20.90;;;18.70;;
18228;SDS011;9239;50.932;3.142;2022-11-13T04:36:02;22.83;;;19.10;;
18228;SDS011;9239;50.932;3.142;2022-11-13T04:38:29;25.03;;;18.70;;
18228;SDS011;9239;50.932;3.142;2022-11-13T04:40:56;21.00;;;18.57;;
18228;SDS011;9239;50.932;3.142;2022-11-13T04:43:38;22.73;;;20.27;;
18228;SDS011;9239;50.932;3.142;2022-11-13T04:46:05;22.63;;;19.60;;
18228;SDS011;9239;50.932;3.142;2022-11-13T04:48:33;22.70;;;20.00;;
18228;SDS011;9239;50.932;3.142;2022-11-13T04:51:00;21.80;;;19.53;;
18228;SDS011;9239;50.932;3.142;2022-11-13T04:53:27;20.93;;;18.73;;
18228;SDS011;9239;50.932;3.142;2022-11-13T04:55:54;22.73;;;20.33;;
18228;SDS011;9239;50.932;3.142;2022-11-13T04:58:21;20.97;;;18.77;;
18228;SDS011;9239;50.932;3.142;2022-11-13T05:00:49;23.07;;;20.50;;
18228;SDS011;9239;50.932;3.142;2022-11-13T05:03:16;21.53;;;19.30;;
18228;SDS011;9239;50.932;3.142;2022-11-13T05:05:43;22.97;;;20.60;;
18228;SDS011;9239;50.932;3.142;2022-11-13T05:08:09;23.20;;;20.73;;
18228;SDS011;9239;50.932;3.142;2022-11-13T05:10:36;23.07;;;19.83;;
18228;SDS011;9239;50.932;3.142;2022-11-13T05:13:03;23.60;;;20.57;;
18228;SDS011;9239;50.932;3.142;2022-11-13T05:15:30;21.53;;;19.43;;
18228;SDS011;9239;50.932;3.142;2022-11-13T05:17:58;25.30;;;22.40;;
18228;SDS011;9239;50.932;3.142;2022-11-13T05:20:25;24.83;;;22.00;;
18228;SDS011;9239;50.932;3.142;2022-11-13T05:22:52;24.10;;;21.60;;
18228;SDS011;9239;50.932;3.142;2022-11-13T05:25:19;23.47;;;20.97;;
18228;SDS011;9239;50.932;3.142;2022-11-13T05:27:46;22.90;;;20.40;;
18228;SDS011;9239;50.932;3.142;2022-11-13T05:30:12;23.93;;;20.60;;
18228;SDS011;9239;50.932;3.142;2022-11-13T05:32:40;22.60;;;20.17;;
18228;SDS011;9239;50.932;3.142;2022-11-13T05:35:08;22.80;;;20.37;;
18228;SDS011;9239;50.932;3.142;2022-11-13T05:37:35;23.80;;;21.30;;
18228;SDS011;9239;50.932;3.142;2022-11-13T05:40:02;22.27;;;19.87;;
18228;SDS011;9239;50.932;3.142;2022-11-13T05:42:30;21.87;;;19.47;;
18228;SDS011;9239;50.932;3.142;2022-11-13T05:44:57;24.60;;;22.20;;
18228;SDS011;9239;50.932;3.142;2022-11-13T05:47:23;25.37;;;22.27;;
18228;SDS011;9239;50.932;3.142;2022-11-13T05:49:50;22.67;;;20.30;;
18228;SDS011;9239;50.932;3.142;2022-11-13T05:52:19;22.97;;;20.60;;
18228;SDS011;9239;50.932;3.142;2022-11-13T05:54:45;25.10;;;21.37;;
18228;SDS011;9239;50.932;3.142;2022-11-13T05:57:12;23.33;;;20.83;;
18228;SDS011;9239;50.932;3.142;2022-11-13T05:59:39;23.70;;;20.70;;
18228;SDS011;9239;50.932;3.142;2022-11-13T06:02:06;22.30;;;20.00;;
18228;SDS011;9239;50.932;3.142;2022-11-13T06:04:33;23.63;;;20.70;;
18228;SDS011;9239;50.932;3.142;2022-11-13T06:07:00;23.90;;;21.47;;
18228;SDS011;9239;50.932;3.142;2022-11-13T06:09:28;24.77;;;21.97;;
18228;SDS011;9239;50.932;3.142;2022-11-13T06:11:55;23.67;;;21.27;;
18228;SDS011;9239;50.932;3.142;2022-11-13T06:14:22;26.40;;;23.03;;
18228;SDS011;9239;50.932;3.142;2022-11-13T06:16:48;25.67;;;22.90;;
18228;SDS011;9239;50.932;3.142;2022-11-13T06:19:15;27.20;;;23.30;;
18228;SDS011;9239;50.932;3.142;2022-11-13T06:21:42;25.63;;;22.97;;
18228;SDS011;9239;50.932;3.142;2022-11-13T06:24:10;24.93;;;22.37;;
18228;SDS011;9239;50.932;3.142;2022-11-13T06:26:39;24.10;;;21.43;;
18228;SDS011;9239;50.932;3.142;2022-11-13T06:29:07;25.13;;;22.50;;
18228;SDS011;9239;50.932;3.142;2022-11-13T06:31:35;25.93;;;20.67;;
18228;SDS011;9239;50.932;3.142;2022-11-13T06:34:03;24.30;;;21.70;;
18228;SDS011;9239;50.932;3.142;2022-11-13T06:36:31;23.67;;;21.17;;
18228;SDS011;9239;50.932;3.142;2022-11-13T06:38:59;24.83;;;22.17;;
18228;SDS011;9239;50.932;3.142;2022-11-13T06:41:27;23.77;;;21.23;;
18228;SDS011;9239;50.932;3.142;2022-11-13T06:43:57;26.67;;;22.47;;
18228;SDS011;9239;50.932;3.142;2022-11-13T06:46:24;25.27;;;22.53;;
18228;SDS011;9239;50.932;3.142;2022-11-13T06:48:52;27.43;;;23.40;;
18228;SDS011;9239;50.932;3.142;2022-11-13T06:51:22;25.27;;;22.57;;
18228;SDS011;9239;50.932;3.142;2022-11-13T06:53:51;24.77;;;22.27;;
18228;SDS011;9239;50.932;3.142;2022-11-13T06:56:19;24.00;;;21.53;;
18228;SDS011;9239;50.932;3.142;2022-11-13T06:58:46;27.80;;;22.33;;
18228;SDS011;9239;50.932;3.142;2022-11-13T07:01:15;28.70;;;24.03;;
18228;SDS011;9239;50.932;3.142;2022-11-13T07:03:43;26.83;;;23.73;;
18228;SDS011;9239;50.932;3.142;2022-11-13T07:06:11;25.17;;;22.57;;
18228;SDS011;9239;50.932;3.142;2022-11-13T07:08:39;27.67;;;23.40;;
18228;SDS011;9239;50.932;3.142;2022-11-13T07:11:08;25.10;;;22.30;;
18228;SDS011;9239;50.932;3.142;2022-11-13T07:13:36;25.57;;;22.43;;
18228;SDS011;9239;50.932;3.142;2022-11-13T07:16:04;25.53;;;22.43;;
18228;SDS011;9239;50.932;3.142;2022-11-13T07:18:33;25.33;;;22.70;;
18228;SDS011;9239;50.932;3.142;2022-11-13T07:21:02;25.57;;;21.47;;
18228;SDS011;9239;50.932;3.142;2022-11-13T07:23:30;24.30;;;21.70;;
18228;SDS011;9239;50.932;3.142;2022-11-13T07:25:58;23.93;;;21.53;;
18228;SDS011;9239;50.932;3.142;2022-11-13T07:28:25;25.27;;;22.60;;
18228;SDS011;9239;50.932;3.142;2022-11-13T07:30:51;24.97;;;22.30;;
18228;SDS011;9239;50.932;3.142;2022-11-13T07:33:18;24.30;;;21.10;;
18228;SDS011;9239;50.932;3.142;2022-11-13T07:35:46;24.10;;;21.60;;
18228;SDS011;9239;50.932;3.142;2022-11-13T07:38:13;24.40;;;21.83;;
18228;SDS011;9239;50.932;3.142;2022-11-13T07:40:40;25.13;;;22.07;;
18228;SDS011;9239;50.932;3.142;2022-11-13T07:43:07;28.67;;;23.23;;
18228;SDS011;9239;50.932;3.142;2022-11-13T07:45:34;24.17;;;21.63;;
18228;SDS011;9239;50.932;3.142;2022-11-13T07:48:01;25.63;;;22.67;;
18228;SDS011;9239;50.932;3.142;2022-11-13T07:50:30;25.30;;;22.00;;
18228;SDS011;9239;50.932;3.142;2022-11-13T07:53:01;24.13;;;21.63;;
18228;SDS011;9239;50.932;3.142;2022-11-13T07:55:30;27.03;;;22.60;;
18228;SDS011;9239;50.932;3.142;2022-11-13T07:57:58;26.73;;;23.67;;
18228;SDS011;9239;50.932;3.142;2022-11-13T08:00:26;27.87;;;24.40;;
18228;SDS011;9239;50.932;3.142;2022-11-13T08:02:54;26.63;;;22.77;;
18228;SDS011;9239;50.932;3.142;2022-11-13T08:05:21;27.50;;;23.93;;
18228;SDS011;9239;50.932;3.142;2022-11-13T08:07:48;29.37;;;26.17;;
18228;SDS011;9239;50.932;3.142;2022-11-13T08:10:18;28.27;;;25.30;;
18228;SDS011;9239;50.932;3.142;2022-11-13T08:12:45;31.00;;;27.33;;
18228;SDS011;9239;50.932;3.142;2022-11-13T08:15:13;28.93;;;25.93;;
18228;SDS011;9239;50.932;3.142;2022-11-13T08:17:40;29.63;;;26.53;;
18228;SDS011;9239;50.932;3.142;2022-11-13T08:20:07;29.57;;;26.43;;
18228;SDS011;9239;50.932;3.142;2022-11-13T08:22:35;27.67;;;24.40;;
18228;SDS011;9239;50.932;3.142;2022-11-13T08:25:02;28.03;;;25.10;;
18228;SDS011;9239;50.932;3.142;2022-11-13T08:27:30;29.33;;;23.73;;
18228;SDS011;9239;50.932;3.142;2022-11-13T08:29:57;26.37;;;23.33;;
18228;SDS011;9239;50.932;3.142;2022-11-13T08:32:24;26.47;;;23.37;;
18228;SDS011;9239;50.932;3.142;2022-11-13T08:34:51;24.90;;;22.37;;
18228;SDS011;9239;50.932;3.142;2022-11-13T08:37:20;25.77;;;23.00;;
18228;SDS011;9239;50.932;3.142;2022-11-13T08:39:47;26.13;;;23.47;;
18228;SDS011;9239;50.932;3.142;2022-11-13T08:42:14;23.23;;;20.93;;
18228;SDS011;9239;50.932;3.142;2022-11-13T08:44:42;25.37;;;22.67;;
18228;SDS011;9239;50.932;3.142;2022-11-13T08:47:09;25.00;;;22.60;;
18228;SDS011;9239;50.932;3.142;2022-11-13T08:49:36;25.47;;;22.77;;
18228;SDS011;9239;50.932;3.142;2022-11-13T08:52:03;24.07;;;21.57;;
18228;SDS011;9239;50.932;3.142;2022-11-13T08:54:30;24.50;;;22.03;;
18228;SDS011;9239;50.932;3.142;2022-11-13T08:56:57;25.70;;;23.10;;
18228;SDS011;9239;50.932;3.142;2022-11-13T08:59:24;25.20;;;22.57;;
18228;SDS011;9239;50.932;3.142;2022-11-13T09:01:52;23.87;;;21.47;;
18228;SDS011;9239;50.932;3.142;2022-11-13T09:04:23;23.80;;;21.57;;
18228;SDS011;9239;50.932;3.142;2022-11-13T09:06:50;23.67;;;21.27;;
18228;SDS011;9239;50.932;3.142;2022-11-13T09:09:17;25.27;;;22.70;;
18228;SDS011;9239;50.932;3.142;2022-11-13T09:11:44;26.00;;;23.50;;
18228;SDS011;9239;50.932;3.142;2022-11-13T09:14:11;27.23;;;24.43;;
18228;SDS011;9239;50.932;3.142;2022-11-13T09:16:38;26.07;;;23.47;;
18228;SDS011;9239;50.932;3.142;2022-11-13T09:19:06;23.20;;;21.07;;
18228;SDS011;9239;50.932;3.142;2022-11-13T09:21:33;22.93;;;20.67;;
18228;SDS011;9239;50.932;3.142;2022-11-13T09:24:00;24.50;;;22.20;;
18228;SDS011;9239;50.932;3.142;2022-11-13T09:26:27;23.67;;;21.37;;
18228;SDS011;9239;50.932;3.142;2022-11-13T09:28:54;24.17;;;21.77;;
18228;SDS011;9239;50.932;3.142;2022-11-13T09:31:20;22.93;;;20.50;;
18228;SDS011;9239;50.932;3.142;2022-11-13T09:33:47;21.20;;;19.20;;
18228;SDS011;9239;50.932;3.142;2022-11-13T09:36:15;21.40;;;19.50;;
18228;SDS011;9239;50.932;3.142;2022-11-13T09:38:42;23.07;;;20.87;;
18228;SDS011;9239;50.932;3.142;2022-11-13T09:41:10;21.53;;;19.43;;
18228;SDS011;9239;50.932;3.142;2022-11-13T09:43:41;22.97;;;20.87;;
18228;SDS011;9239;50.932;3.142;2022-11-13T09:46:14;22.03;;;19.83;;
18228;SDS011;9239;50.932;3.142;2022-11-13T09:48:46;21.83;;;19.70;;
18228;SDS011;9239;50.932;3.142;2022-11-13T09:51:19;23.33;;;21.13;;
18228;SDS011;9239;50.932;3.142;2022-11-13T09:53:49;22.60;;;20.30;;
18228;SDS011;9239;50.932;3.142;2022-11-13T09:59:06;24.03;;;21.73;;
18228;SDS011;9239;50.932;3.142;2022-11-13T10:01:45;23.17;;;21.03;;
18228;SDS011;9239;50.932;3.142;2022-11-13T10:04:18;23.83;;;21.47;;
18228;SDS011;9239;50.932;3.142;2022-11-13T10:06:57;22.37;;;20.27;;
18228;SDS011;9239;50.932;3.142;2022-11-13T10:09:32;19.73;;;17.83;;
18228;SDS011;9239;50.932;3.142;2022-11-13T10:12:19;19.40;;;17.40;;
18228;SDS011;9239;50.932;3.142;2022-11-13T10:14:47;20.37;;;18.23;;
18228;SDS011;9239;50.932;3.142;2022-11-13T10:17:18;21.77;;;19.47;;
18228;SDS011;9239;50.932;3.142;2022-11-13T10:19:51;19.57;;;17.77;;
18228;SDS011;9239;50.932;3.142;2022-11-13T10:22:25;20.97;;;18.97;;
18228;SDS011;9239;50.932;3.142;2022-11-13T10:24:57;22.67;;;20.40;;
18228;SDS011;9239;50.932;3.142;2022-11-13T10:27:29;20.50;;;18.70;;
18228;SDS011;9239;50.932;3.142;2022-11-13T10:29:56;20.50;;;18.47;;
18228;SDS011;9239;50.932;3.142;2022-11-13T10:32:24;22.80;;;20.60;;
18228;SDS011;9239;50.932;3.142;2022-11-13T10:34:53;20.40;;;18.50;;
18228;SDS011;9239;50.932;3.142;2022-11-13T10:37:42;21.70;;;19.50;;
18228;SDS011;9239;50.932;3.142;2022-11-13T10:40:22;19.03;;;17.33;;
18228;SDS011;9239;50.932;3.142;2022-11-13T10:42:50;18.80;;;17.00;;
18228;SDS011;9239;50.932;3.142;2022-11-13T10:45:17;20.43;;;18.37;;
18228;SDS011;9239;50.932;3.142;2022-11-13T10:47:46;19.00;;;17.27;;
18228;SDS011;9239;50.932;3.142;2022-11-13T10:50:18;18.33;;;16.60;;
18228;SDS011;9239;50.932;3.142;2022-11-13T10:52:48;19.70;;;17.80;;
18228;SDS011;9239;50.932;3.142;2022-11-13T10:55:20;21.43;;;18.23;;
18228;SDS011;9239;50.932;3.142;2022-11-13T10:57:54;20.50;;;18.40;;
18228;SDS011;9239;50.932;3.142;2022-11-13T11:00:22;20.67;;;18.67;;
18228;SDS011;9239;50.932;3.142;2022-11-13T11:02:51;20.67;;;18.77;;
18228;SDS011;9239;50.932;3.142;2022-11-13T11:05:19;20.40;;;18.33;;
18228;SDS011;9239;50.932;3.142;2022-11-13T11:07:49;19.73;;;17.73;;
18228;SDS011;9239;50.932;3.142;2022-11-13T11:10:20;20.20;;;18.20;;
18228;SDS011;9239;50.932;3.142;2022-11-13T11:12:51;19.70;;;17.70;;
18228;SDS011;9239;50.932;3.142;2022-11-13T11:15:21;19.60;;;17.80;;
18228;SDS011;9239;50.932;3.142;2022-11-13T11:17:53;20.83;;;18.60;;
18228;SDS011;9239;50.932;3.142;2022-11-13T11:20:25;20.20;;;18.10;;
18228;SDS011;9239;50.932;3.142;2022-11-13T11:23:03;19.77;;;17.87;;
18228;SDS011;9239;50.932;3.142;2022-11-13T11:25:41;19.80;;;17.70;;
18228;SDS011;9239;50.932;3.142;2022-11-13T11:28:16;19.00;;;17.20;;
18228;SDS011;9239;50.932;3.142;2022-11-13T11:30:51;19.47;;;17.57;;
18228;SDS011;9239;50.932;3.142;2022-11-13T11:33:22;19.77;;;17.70;;
18228;SDS011;9239;50.932;3.142;2022-11-13T11:35:56;18.83;;;17.03;;
18228;SDS011;9239;50.932;3.142;2022-11-13T11:38:31;18.70;;;16.90;;
18228;SDS011;9239;50.932;3.142;2022-11-13T11:41:02;19.03;;;17.10;;
18228;SDS011;9239;50.932;3.142;2022-11-13T11:43:36;19.30;;;17.35;;
18228;SDS011;9239;50.932;3.142;2022-11-13T11:46:09;17.73;;;16.05;;
18228;SDS011;9239;50.932;3.142;2022-11-13T11:48:37;18.38;;;16.67;;
18228;SDS011;9239;50.932;3.142;2022-11-13T11:51:07;18.10;;;16.20;;
18228;SDS011;9239;50.932;3.142;2022-11-13T11:53:45;18.17;;;16.35;;
18228;SDS011;9239;50.932;3.142;2022-11-13T11:56:20;18.00;;;16.20;;
18228;SDS011;9239;50.932;3.142;2022-11-13T12:05:34;16.27;;;14.60;;
18228;SDS011;9239;50.932;3.142;2022-11-13T12:08:13;15.80;;;14.30;;
18228;SDS011;9239;50.932;3.142;2022-11-13T12:10:51;15.50;;;14.00;;
18228;SDS011;9239;50.932;3.142;2022-11-13T12:13:26;16.55;;;14.95;;
18228;SDS011;9239;50.932;3.142;2022-11-13T12:15:57;15.75;;;13.73;;
18228;SDS011;9239;50.932;3.142;2022-11-13T12:18:35;14.93;;;13.45;;
18228;SDS011;9239;50.932;3.142;2022-11-13T12:21:18;15.75;;;14.18;;
18228;SDS011;9239;50.932;3.142;2022-11-13T12:24:04;15.35;;;13.73;;
18228;SDS011;9239;50.932;3.142;2022-11-13T12:26:42;13.80;;;12.40;;
18228;SDS011;9239;50.932;3.142;2022-11-13T12:29:17;13.48;;;12.27;;
18228;SDS011;9239;50.932;3.142;2022-11-13T12:31:58;13.20;;;12.00;;
18228;SDS011;9239;50.932;3.142;2022-11-13T12:34:39;12.25;;;11.02;;
18228;SDS011;9239;50.932;3.142;2022-11-13T12:37:10;12.13;;;10.90;;
18228;SDS011;9239;50.932;3.142;2022-11-13T12:39:41;11.77;;;10.68;;
18228;SDS011;9239;50.932;3.142;2022-11-13T12:42:18;12.73;;;11.50;;
18228;SDS011;9239;50.932;3.142;2022-11-13T12:44:52;12.15;;;11.02;;
18228;SDS011;9239;50.932;3.142;2022-11-13T12:47:25;13.77;;;11.88;;
18228;SDS011;9239;50.932;3.142;2022-11-13T12:49:59;12.90;;;11.60;;
18228;SDS011;9239;50.932;3.142;2022-11-13T12:52:31;12.88;;;11.45;;
18228;SDS011;9239;50.932;3.142;2022-11-13T12:55:05;13.15;;;11.85;;
18228;SDS011;9239;50.932;3.142;2022-11-13T12:57:34;14.40;;;12.73;;
18228;SDS011;9239;50.932;3.142;2022-11-13T13:00:20;13.98;;;12.57;;
18228;SDS011;9239;50.932;3.142;2022-11-13T13:05:52;14.45;;;12.38;;
18228;SDS011;9239;50.932;3.142;2022-11-13T13:11:23;14.60;;;12.25;;
18228;SDS011;9239;50.932;3.142;2022-11-13T13:14:05;14.07;;;12.75;;
18228;SDS011;9239;50.932;3.142;2022-11-13T13:16:43;13.95;;;12.55;;
18228;SDS011;9239;50.932;3.142;2022-11-13T13:19:22;14.48;;;12.95;;
18228;SDS011;9239;50.932;3.142;2022-11-13T13:21:52;13.32;;;11.93;;
18228;SDS011;9239;50.932;3.142;2022-11-13T13:24:30;17.42;;;15.73;;
18228;SDS011;9239;50.932;3.142;2022-11-13T13:26:59;22.00;;;19.63;;
18228;SDS011;9239;50.932;3.142;2022-11-13T13:29:28;21.77;;;19.80;;
18228;SDS011;9239;50.932;3.142;2022-11-13T13:31:58;23.67;;;21.17;;
18228;SDS011;9239;50.932;3.142;2022-11-13T13:34:35;26.65;;;24.02;;
18228;SDS011;9239;50.932;3.142;2022-11-13T13:37:13;23.90;;;21.52;;
18228;SDS011;9239;50.932;3.142;2022-11-13T13:39:53;26.70;;;24.20;;
18228;SDS011;9239;50.932;3.142;2022-11-13T13:42:31;26.05;;;23.42;;
18228;SDS011;9239;50.932;3.142;2022-11-13T13:45:20;24.88;;;21.95;;
18228;SDS011;9239;50.932;3.142;2022-11-13T13:47:54;23.33;;;20.92;;
18228;SDS011;9239;50.932;3.142;2022-11-13T13:50:23;26.70;;;24.20;;
18228;SDS011;9239;50.932;3.142;2022-11-13T13:52:53;24.70;;;22.05;;
18228;SDS011;9239;50.932;3.142;2022-11-13T13:55:24;24.88;;;22.33;;
18228;SDS011;9239;50.932;3.142;2022-11-13T13:57:53;23.65;;;21.40;;
18228;SDS011;9239;50.932;3.142;2022-11-13T14:00:22;20.40;;;18.40;;
18228;SDS011;9239;50.932;3.142;2022-11-13T14:02:50;17.48;;;15.75;;
18228;SDS011;9239;50.932;3.142;2022-11-13T14:05:28;17.42;;;15.73;;
18228;SDS011;9239;50.932;3.142;2022-11-13T14:07:56;16.45;;;14.85;;
18228;SDS011;9239;50.932;3.142;2022-11-13T14:10:24;18.10;;;16.25;;
18228;SDS011;9239;50.932;3.142;2022-11-13T14:12:52;17.17;;;15.32;;
18228;SDS011;9239;50.932;3.142;2022-11-13T14:15:23;17.33;;;15.63;;
18228;SDS011;9239;50.932;3.142;2022-11-13T14:17:51;19.30;;;15.07;;
18228;SDS011;9239;50.932;3.142;2022-11-13T14:20:31;14.75;;;13.20;;
18228;SDS011;9239;50.932;3.142;2022-11-13T14:23:08;15.55;;;13.95;;
18228;SDS011;9239;50.932;3.142;2022-11-13T14:25:37;13.82;;;12.48;;
18228;SDS011;9239;50.932;3.142;2022-11-13T14:28:10;15.05;;;13.55;;
18228;SDS011;9239;50.932;3.142;2022-11-13T14:30:41;14.23;;;12.80;;
18228;SDS011;9239;50.932;3.142;2022-11-13T14:33:08;13.25;;;11.93;;
18228;SDS011;9239;50.932;3.142;2022-11-13T14:35:40;12.50;;;11.30;;
18228;SDS011;9239;50.932;3.142;2022-11-13T14:38:17;12.13;;;10.98;;
18228;SDS011;9239;50.932;3.142;2022-11-13T14:40:46;11.82;;;10.73;;
18228;SDS011;9239;50.932;3.142;2022-11-13T14:43:15;11.45;;;10.45;;
18228;SDS011;9239;50.932;3.142;2022-11-13T14:45:57;11.88;;;10.77;;
18228;SDS011;9239;50.932;3.142;2022-11-13T14:48:26;11.15;;;10.02;;
18228;SDS011;9239;50.932;3.142;2022-11-13T14:50:54;11.47;;;10.47;;
18228;SDS011;9239;50.932;3.142;2022-11-13T14:53:26;12.20;;;11.10;;
18228;SDS011;9239;50.932;3.142;2022-11-13T14:55:56;11.85;;;10.85;;
18228;SDS011;9239;50.932;3.142;2022-11-13T14:58:26;10.95;;;9.98;;
18228;SDS011;9239;50.932;3.142;2022-11-13T15:00:55;12.15;;;11.02;;
18228;SDS011;9239;50.932;3.142;2022-11-13T15:03:23;12.60;;;11.48;;